createdAt,value
2022-10-26T00:01:20.017Z,96.80
2022-10-26T00:03:46.670Z,96.10
2022-10-26T00:06:19.239Z,96.61
2022-10-26T00:08:47.012Z,96.68
2022-10-26T00:11:14.382Z,96.23
2022-10-26T00:13:41.693Z,95.63
2022-10-26T00:16:20.235Z,95.89
2022-10-26T00:18:47.564Z,95.26
2022-10-26T00:21:15.062Z,94.51
2022-10-26T00:23:41.663Z,93.60
2022-10-26T00:26:09.330Z,93.07
2022-10-26T00:28:36.638Z,93.12
2022-10-26T00:31:06.021Z,93.71
2022-10-26T00:33:32.683Z,92.77
2022-10-26T00:35:59.293Z,92.83
2022-10-26T00:38:25.936Z,94.03
2022-10-26T00:40:52.723Z,93.75
2022-10-26T00:43:22.052Z,94.62
2022-10-26T00:45:54.972Z,96.06
2022-10-26T00:48:31.793Z,96.79
2022-10-26T00:51:03.330Z,95.02
2022-10-26T00:53:30.806Z,95.95
2022-10-26T00:55:57.431Z,95.18
2022-10-26T00:58:25.747Z,95.24
2022-10-26T01:00:52.569Z,95.93
2022-10-26T01:03:20.651Z,96.58
2022-10-26T01:05:49.535Z,94.58
2022-10-26T01:08:17.031Z,94.72
2022-10-26T01:10:43.627Z,94.87
2022-10-26T01:13:11.581Z,94.08
2022-10-26T01:15:40.714Z,93.87
2022-10-26T01:18:20.461Z,96.53
2022-10-26T01:21:22.260Z,96.13
2022-10-26T01:24:00.943Z,95.24
2022-10-26T01:26:36.457Z,94.91
2022-10-26T01:29:06.038Z,93.54
2022-10-26T01:31:57.897Z,94.34
2022-10-26T01:34:36.988Z,93.83
2022-10-26T01:37:15.200Z,93.24
2022-10-26T01:39:52.185Z,94.13
2022-10-26T01:42:21.817Z,94.89
2022-10-26T01:44:55.898Z,94.66
2022-10-26T01:47:24.098Z,93.92
2022-10-26T01:49:56.584Z,95.57
2022-10-26T01:52:23.974Z,94.27
2022-10-26T01:54:50.568Z,94.69
2022-10-26T01:57:21.707Z,94.65
2022-10-26T01:59:51.015Z,93.77
2022-10-26T02:02:35.943Z,94.37
2022-10-26T02:05:24.135Z,94.18
2022-10-26T02:08:19.445Z,94.23
2022-10-26T02:11:04.789Z,93.36
2022-10-26T02:14:07.601Z,94.80
2022-10-26T02:16:39.837Z,93.77
2022-10-26T02:19:18.483Z,93.82
2022-10-26T02:21:51.833Z,94.11
2022-10-26T02:24:21.088Z,94.65
2022-10-26T02:26:51.700Z,95.92
2022-10-26T02:29:20.672Z,96.21
2022-10-26T02:31:49.695Z,96.27
2022-10-26T02:34:22.035Z,95.80
2022-10-26T02:36:51.900Z,95.42
2022-10-26T02:39:20.165Z,97.47
2022-10-26T02:41:48.879Z,98.13
2022-10-26T02:44:27.714Z,100.00
2022-10-26T02:46:55.922Z,100.00
2022-10-26T02:49:23.998Z,97.90
2022-10-26T02:52:12.952Z,97.70
2022-10-26T02:54:50.757Z,96.78
2022-10-26T02:57:23.653Z,95.79
2022-10-26T02:59:50.948Z,96.87
2022-10-26T03:02:19.728Z,98.43
2022-10-26T03:04:49.605Z,98.67
2022-10-26T03:07:24.025Z,97.01
2022-10-26T03:09:50.791Z,96.49
2022-10-26T03:12:17.462Z,96.20
2022-10-26T03:14:44.107Z,95.58
2022-10-26T03:17:10.708Z,95.99
2022-10-26T03:19:37.295Z,96.26
2022-10-26T03:22:03.886Z,96.74
2022-10-26T03:24:30.579Z,98.56
2022-10-26T03:26:59.683Z,96.11
2022-10-26T03:29:28.709Z,95.79
2022-10-26T03:31:55.316Z,97.29
2022-10-26T03:34:21.937Z,96.22
2022-10-26T03:36:48.564Z,96.86
2022-10-26T03:39:15.178Z,96.65
2022-10-26T03:41:41.812Z,98.93
2022-10-26T03:44:08.401Z,99.73
2022-10-26T03:46:34.982Z,99.98
2022-10-26T03:49:01.610Z,100.00
2022-10-26T03:51:29.933Z,99.96
2022-10-26T03:53:56.525Z,98.76
2022-10-26T03:56:23.143Z,98.41
2022-10-26T03:58:49.802Z,97.51
2022-10-26T04:01:16.442Z,97.74
2022-10-26T04:03:43.087Z,98.90
2022-10-26T04:06:10.962Z,98.80
2022-10-26T04:08:37.584Z,98.45
2022-10-26T04:11:04.836Z,99.51
2022-10-26T04:13:31.863Z,100.00
2022-10-26T04:15:58.482Z,100.00
2022-10-26T04:18:25.190Z,100.00
2022-10-26T04:20:51.775Z,97.11
2022-10-26T04:23:19.769Z,95.57
2022-10-26T04:25:46.839Z,94.12
2022-10-26T04:28:14.426Z,94.51
2022-10-26T04:30:41.072Z,95.59
2022-10-26T04:33:07.989Z,95.73
2022-10-26T04:35:35.129Z,96.46
2022-10-26T04:38:04.360Z,96.12
2022-10-26T04:40:32.292Z,94.81
2022-10-26T04:42:59.524Z,95.57
2022-10-26T04:45:26.327Z,97.47
2022-10-26T04:48:08.092Z,96.47
2022-10-26T04:50:34.885Z,95.93
2022-10-26T04:53:01.986Z,95.16
2022-10-26T04:55:28.579Z,95.15
2022-10-26T04:57:57.250Z,95.60
2022-10-26T05:00:27.081Z,96.85
2022-10-26T05:02:59.454Z,97.74
2022-10-26T05:05:26.250Z,99.09
2022-10-26T05:07:56.949Z,98.10
2022-10-26T05:10:24.437Z,98.16
2022-10-26T05:12:55.454Z,97.90
2022-10-26T05:15:22.406Z,95.62
2022-10-26T05:17:58.116Z,96.19
2022-10-26T05:20:26.062Z,95.85
2022-10-26T05:22:52.930Z,94.14
2022-10-26T05:25:19.524Z,95.09
2022-10-26T05:27:46.112Z,93.73
2022-10-26T05:30:12.862Z,95.74
2022-10-26T05:32:39.472Z,94.79
2022-10-26T05:35:06.304Z,94.54
2022-10-26T05:37:32.940Z,93.84
2022-10-26T05:39:59.534Z,94.71
2022-10-26T05:42:26.102Z,93.83
2022-10-26T05:44:52.774Z,96.53
2022-10-26T05:47:19.360Z,96.83
2022-10-26T05:49:45.926Z,96.95
2022-10-26T05:52:12.618Z,96.87
2022-10-26T05:54:39.191Z,97.83
2022-10-26T05:57:06.089Z,97.38
2022-10-26T05:59:32.929Z,98.85
2022-10-26T06:02:05.783Z,99.48
2022-10-26T06:04:45.822Z,98.12
2022-10-26T06:07:15.136Z,95.29
2022-10-26T06:09:42.449Z,98.03
2022-10-26T06:12:11.834Z,98.22
2022-10-26T06:14:40.378Z,99.28
2022-10-26T06:17:17.104Z,100.00
2022-10-26T06:19:58.806Z,100.00
2022-10-26T06:22:50.406Z,100.00
2022-10-26T06:25:51.168Z,100.00
2022-10-26T06:28:44.007Z,100.00
2022-10-26T06:31:14.293Z,100.00
2022-10-26T06:33:41.548Z,100.00
2022-10-26T06:36:21.663Z,100.00
2022-10-26T06:38:52.767Z,100.00
2022-10-26T06:41:20.837Z,100.00
2022-10-26T06:43:48.062Z,100.00
2022-10-26T06:46:46.037Z,100.00
2022-10-26T06:49:21.993Z,99.93
2022-10-26T06:52:20.409Z,100.00
2022-10-26T06:54:56.315Z,100.00
2022-10-26T06:57:25.145Z,100.00
2022-10-26T06:59:51.762Z,100.00
2022-10-26T07:02:18.665Z,100.00
2022-10-26T07:04:45.464Z,100.00
2022-10-26T07:07:16.306Z,100.00
2022-10-26T07:09:42.868Z,100.00
2022-10-26T07:12:09.468Z,100.00
2022-10-26T07:14:36.064Z,100.00
2022-10-26T07:17:02.785Z,100.00
2022-10-26T07:19:29.423Z,100.00
2022-10-26T07:21:56.591Z,100.00
2022-10-26T07:24:23.635Z,100.00
2022-10-26T07:26:50.257Z,100.00
2022-10-26T07:29:16.853Z,100.00
2022-10-26T07:31:43.849Z,100.00
2022-10-26T07:34:10.464Z,100.00
2022-10-26T07:36:37.042Z,100.00
2022-10-26T07:39:04.296Z,100.00
2022-10-26T07:41:30.942Z,100.00
2022-10-26T07:43:57.793Z,100.00
2022-10-26T07:46:24.575Z,100.00
2022-10-26T07:48:51.324Z,100.00
2022-10-26T07:51:17.962Z,100.00
2022-10-26T07:53:45.292Z,100.00
2022-10-26T07:56:12.581Z,100.00
2022-10-26T07:58:39.195Z,100.00
2022-10-26T08:01:08.367Z,100.00
2022-10-26T08:03:35.134Z,100.00
2022-10-26T08:06:01.781Z,100.00
2022-10-26T08:08:28.389Z,100.00
2022-10-26T08:10:54.960Z,100.00
2022-10-26T08:13:21.602Z,100.00
2022-10-26T08:15:48.180Z,100.00
2022-10-26T08:18:14.917Z,100.00
2022-10-26T08:20:41.538Z,100.00
2022-10-26T08:23:08.244Z,100.00
2022-10-26T08:25:35.285Z,100.00
2022-10-26T08:28:03.332Z,100.00
2022-10-26T08:30:36.465Z,100.00
2022-10-26T08:33:06.171Z,100.00
2022-10-26T08:35:33.707Z,100.00
2022-10-26T08:38:00.317Z,100.00
2022-10-26T08:40:36.589Z,100.00
2022-10-26T08:43:33.944Z,100.00
2022-10-26T08:46:13.396Z,100.00
2022-10-26T08:48:47.986Z,100.00
2022-10-26T08:51:17.533Z,100.00
2022-10-26T08:53:48.091Z,100.00
2022-10-26T08:56:35.594Z,100.00
2022-10-26T08:59:38.379Z,100.00
2022-10-26T09:02:12.863Z,100.00
2022-10-26T09:04:40.177Z,100.00
2022-10-26T09:07:33.672Z,100.00
2022-10-26T09:10:33.975Z,100.00
2022-10-26T09:13:03.441Z,100.00
2022-10-26T09:15:57.685Z,100.00
2022-10-26T09:19:09.149Z,100.00
2022-10-26T09:21:38.694Z,100.00
2022-10-26T09:24:33.303Z,100.00
2022-10-26T09:27:24.306Z,100.00
2022-10-26T09:29:51.951Z,100.00
2022-10-26T09:32:21.578Z,100.00
2022-10-26T09:34:59.498Z,100.00
2022-10-26T09:37:32.776Z,100.00
2022-10-26T09:40:08.688Z,100.00
2022-10-26T09:42:50.315Z,100.00
2022-10-26T09:45:34.252Z,100.00
2022-10-26T09:48:28.659Z,100.00
2022-10-26T09:50:56.850Z,100.00
2022-10-26T09:53:24.859Z,100.00
2022-10-26T09:56:00.189Z,100.00
2022-10-26T09:58:30.891Z,100.00
2022-10-26T10:00:57.811Z,100.00
2022-10-26T10:03:29.891Z,100.00
2022-10-26T10:06:17.962Z,100.00
2022-10-26T10:09:07.997Z,100.00
2022-10-26T10:11:55.174Z,100.00
2022-10-26T10:14:39.920Z,100.00
2022-10-26T10:17:19.836Z,100.00
2022-10-26T10:19:46.754Z,100.00
2022-10-26T10:22:16.099Z,100.00
2022-10-26T10:24:56.616Z,100.00
2022-10-26T10:27:24.168Z,100.00
2022-10-26T10:29:59.758Z,100.00
2022-10-26T10:32:35.327Z,100.00
2022-10-26T10:35:23.879Z,100.00
2022-10-26T10:37:51.798Z,100.00
2022-10-26T10:40:22.077Z,100.00
2022-10-26T10:42:51.655Z,100.00
2022-10-26T10:45:22.593Z,100.00
2022-10-26T10:48:31.757Z,100.00
2022-10-26T10:51:06.217Z,100.00
2022-10-26T10:53:42.011Z,100.00
2022-10-26T10:56:14.626Z,100.00
2022-10-26T10:58:46.305Z,100.00
2022-10-26T11:01:14.693Z,100.00
2022-10-26T11:03:54.419Z,100.00
2022-10-26T11:06:25.674Z,100.00
2022-10-26T11:09:12.504Z,100.00
2022-10-26T11:11:52.999Z,100.00
2022-10-26T11:14:25.413Z,100.00
2022-10-26T11:17:38.527Z,100.00
2022-10-26T11:20:14.870Z,100.00
2022-10-26T11:22:54.064Z,100.00
2022-10-26T11:25:57.872Z,100.00
2022-10-26T11:28:58.921Z,100.00
2022-10-26T11:31:35.011Z,100.00
2022-10-26T11:34:18.253Z,100.00
2022-10-26T11:36:50.490Z,100.00
2022-10-26T11:39:47.740Z,100.00
2022-10-26T11:42:36.547Z,100.00
2022-10-26T11:45:10.720Z,100.00
2022-10-26T11:48:04.553Z,100.00
2022-10-26T11:50:36.783Z,100.00
2022-10-26T11:53:29.410Z,100.00
2022-10-26T11:55:56.770Z,99.76
2022-10-26T11:58:26.136Z,100.00
2022-10-26T12:01:00.898Z,100.00
2022-10-26T12:03:36.894Z,100.00
2022-10-26T12:06:03.644Z,100.00
2022-10-26T12:08:41.028Z,100.00
2022-10-26T12:11:32.734Z,100.00
2022-10-26T12:14:05.082Z,100.00
2022-10-26T12:16:46.563Z,100.00
2022-10-26T12:19:20.264Z,100.00
2022-10-26T12:21:49.786Z,98.07
2022-10-26T12:24:22.433Z,96.59
2022-10-26T12:27:00.111Z,98.68
2022-10-26T12:29:58.726Z,99.48
2022-10-26T12:32:28.235Z,95.55
2022-10-26T12:34:54.770Z,97.13
2022-10-26T12:37:37.104Z,100.00
2022-10-26T12:40:30.521Z,100.00
2022-10-26T12:42:57.993Z,97.30
2022-10-26T12:45:24.595Z,95.50
2022-10-26T12:47:51.427Z,95.68
2022-10-26T12:50:24.714Z,94.84
2022-10-26T12:53:04.924Z,92.68
2022-10-26T12:55:46.390Z,95.22
2022-10-26T12:58:34.066Z,95.50
2022-10-26T13:01:00.655Z,93.50
2022-10-26T13:03:51.634Z,98.94
2022-10-26T13:06:55.564Z,100.00
2022-10-26T13:09:27.748Z,98.41
2022-10-26T13:11:57.204Z,97.02
2022-10-26T13:14:36.045Z,94.74
2022-10-26T13:17:06.236Z,93.48
2022-10-26T13:19:45.844Z,91.62
2022-10-26T13:22:20.319Z,90.76
2022-10-26T13:24:57.380Z,93.51
2022-10-26T13:27:40.685Z,93.49
2022-10-26T13:30:20.042Z,95.23
2022-10-26T13:32:53.951Z,96.81
2022-10-26T13:35:23.948Z,96.94
2022-10-26T13:37:56.214Z,92.91
2022-10-26T13:40:28.053Z,92.66
2022-10-26T13:43:02.820Z,88.53
2022-10-26T13:45:55.568Z,90.30
2022-10-26T13:48:37.119Z,92.76
2022-10-26T13:51:14.165Z,96.01
2022-10-26T13:53:46.275Z,96.61
2022-10-26T13:56:24.559Z,98.11
2022-10-26T13:59:12.673Z,97.85
2022-10-26T14:01:39.407Z,97.92
2022-10-26T14:04:27.009Z,98.16
2022-10-26T14:06:54.833Z,100.00
2022-10-26T14:09:23.266Z,99.54
2022-10-26T14:11:57.911Z,100.00
2022-10-26T14:14:33.669Z,100.00
2022-10-26T14:17:00.828Z,100.00
2022-10-26T14:19:39.696Z,100.00
2022-10-26T14:22:07.224Z,100.00
2022-10-26T14:24:46.952Z,100.00
2022-10-26T14:27:16.824Z,100.00
2022-10-26T14:29:46.918Z,100.00
2022-10-26T14:32:26.997Z,100.00
2022-10-26T14:34:54.577Z,100.00
2022-10-26T14:37:50.222Z,100.00
2022-10-26T14:40:20.468Z,100.00
2022-10-26T14:42:51.525Z,100.00
2022-10-26T14:45:47.635Z,100.00
2022-10-26T14:48:32.315Z,100.00
2022-10-26T14:51:11.640Z,100.00
2022-10-26T14:53:41.074Z,100.00
2022-10-26T14:56:23.767Z,100.00
2022-10-26T14:58:51.193Z,100.00
2022-10-26T15:01:24.076Z,100.00
2022-10-26T15:04:31.899Z,100.00
2022-10-26T15:07:18.186Z,100.00
2022-10-26T15:09:52.553Z,100.00
2022-10-26T15:12:35.114Z,100.00
2022-10-26T15:15:13.711Z,100.00
2022-10-26T15:17:56.181Z,100.00
2022-10-26T15:20:24.912Z,100.00
2022-10-26T15:22:57.694Z,100.00
2022-10-26T15:25:27.979Z,100.00
2022-10-26T15:27:54.731Z,100.00
2022-10-26T15:30:27.321Z,100.00
2022-10-26T15:32:55.562Z,100.00
2022-10-26T15:35:30.116Z,100.00
2022-10-26T15:37:58.034Z,100.00
2022-10-26T15:42:59.701Z,100.00
2022-10-26T15:45:30.086Z,100.00
2022-10-26T15:47:58.360Z,100.00
2022-10-26T15:50:28.326Z,100.00
2022-10-26T15:52:59.154Z,100.00
2022-10-26T15:55:25.846Z,100.00
2022-10-26T15:57:52.793Z,100.00
2022-10-26T16:00:19.614Z,100.00
2022-10-26T16:02:46.527Z,100.00
2022-10-26T16:05:15.035Z,100.00
2022-10-26T16:07:44.041Z,100.00
2022-10-26T16:10:17.815Z,100.00
2022-10-26T16:12:44.490Z,100.00
2022-10-26T16:15:17.507Z,100.00
2022-10-26T16:17:44.533Z,100.00
2022-10-26T16:20:22.334Z,100.00
2022-10-26T16:22:53.166Z,100.00
2022-10-26T16:25:23.511Z,100.00
2022-10-26T16:27:51.357Z,100.00
2022-10-26T16:30:19.115Z,100.00
2022-10-26T16:32:46.330Z,100.00
2022-10-26T16:35:13.538Z,100.00
2022-10-26T16:37:40.262Z,100.00
2022-10-26T16:40:08.217Z,100.00
2022-10-26T16:42:35.039Z,100.00
2022-10-26T16:45:02.879Z,100.00
2022-10-26T16:47:33.037Z,100.00
2022-10-26T16:49:59.640Z,100.00
2022-10-26T16:52:26.221Z,100.00
2022-10-26T16:54:52.819Z,100.00
2022-10-26T16:57:19.417Z,100.00
2022-10-26T16:59:46.101Z,100.00
2022-10-26T17:02:15.522Z,100.00
2022-10-26T17:04:42.250Z,100.00
2022-10-26T17:07:08.943Z,100.00
2022-10-26T17:09:35.518Z,100.00
2022-10-26T17:12:02.694Z,100.00
2022-10-26T17:14:29.302Z,100.00
2022-10-26T17:16:55.875Z,100.00
2022-10-26T17:19:22.442Z,100.00
2022-10-26T17:21:49.014Z,100.00
2022-10-26T17:24:15.650Z,100.00
2022-10-26T17:26:42.374Z,100.00
2022-10-26T17:29:11.732Z,100.00
2022-10-26T17:31:38.358Z,100.00
2022-10-26T17:34:05.201Z,100.00
2022-10-26T17:36:31.809Z,100.00
2022-10-26T17:38:58.550Z,100.00
2022-10-26T17:41:25.512Z,100.00
2022-10-26T17:43:53.492Z,100.00
2022-10-26T17:46:22.720Z,100.00
2022-10-26T17:48:49.323Z,100.00
2022-10-26T17:51:17.899Z,100.00
2022-10-26T17:53:48.438Z,100.00
2022-10-26T17:56:23.270Z,100.00
2022-10-26T17:58:55.124Z,100.00
2022-10-26T18:01:22.517Z,100.00
2022-10-26T18:03:49.382Z,100.00
2022-10-26T18:06:16.012Z,100.00
2022-10-26T18:08:44.034Z,100.00
2022-10-26T18:11:22.545Z,100.00
2022-10-26T18:13:56.691Z,100.00
2022-10-26T18:16:25.002Z,100.00
2022-10-26T18:18:57.370Z,100.00
2022-10-26T18:21:23.991Z,100.00
2022-10-26T18:23:52.877Z,100.00
2022-10-26T18:26:24.500Z,100.00
2022-10-26T18:28:51.075Z,100.00
2022-10-26T18:31:20.331Z,100.00
2022-10-26T18:33:47.200Z,100.00
2022-10-26T18:36:18.625Z,100.00
2022-10-26T18:38:48.849Z,100.00
2022-10-26T18:41:17.844Z,100.00
2022-10-26T18:43:47.048Z,100.00
2022-10-26T18:46:19.159Z,100.00
2022-10-26T18:48:48.104Z,100.00
2022-10-26T18:51:16.869Z,100.00
2022-10-26T18:53:44.675Z,100.00
2022-10-26T18:56:14.149Z,100.00
2022-10-26T18:58:46.527Z,100.00
2022-10-26T19:01:18.863Z,100.00
2022-10-26T19:03:46.730Z,100.00
2022-10-26T19:06:18.939Z,100.00
2022-10-26T19:08:46.748Z,100.00
2022-10-26T19:11:15.627Z,100.00
2022-10-26T19:13:42.693Z,100.00
2022-10-26T19:16:21.795Z,100.00
2022-10-26T19:18:56.118Z,100.00
2022-10-26T19:21:24.224Z,100.00
2022-10-26T19:23:53.282Z,100.00
2022-10-26T19:26:22.558Z,100.00
2022-10-26T19:28:54.788Z,100.00
2022-10-26T19:31:26.227Z,100.00
2022-10-26T19:33:54.535Z,100.00
2022-10-26T19:36:22.771Z,100.00
2022-10-26T19:38:49.462Z,100.00
2022-10-26T19:41:16.704Z,100.00
2022-10-26T19:43:44.276Z,100.00
2022-10-26T19:46:20.260Z,100.00
2022-10-26T19:48:54.991Z,100.00
2022-10-26T19:51:22.470Z,100.00
2022-10-26T19:53:49.100Z,100.00
2022-10-26T19:56:16.090Z,100.00
2022-10-26T19:58:44.615Z,100.00
2022-10-26T20:01:12.631Z,100.00
2022-10-26T20:03:39.478Z,100.00
2022-10-26T20:06:08.845Z,100.00
2022-10-26T20:08:35.596Z,100.00
2022-10-26T20:11:03.120Z,100.00
2022-10-26T20:13:29.963Z,100.00
2022-10-26T20:15:56.567Z,100.00
2022-10-26T20:18:23.135Z,100.00
2022-10-26T20:20:50.205Z,100.00
2022-10-26T20:23:16.855Z,99.81
2022-10-26T20:25:48.700Z,100.00
2022-10-26T20:28:16.888Z,100.00
2022-10-26T20:30:44.960Z,100.00
2022-10-26T20:33:12.119Z,100.00
2022-10-26T20:35:38.799Z,100.00
2022-10-26T20:38:07.138Z,100.00
2022-10-26T20:40:34.607Z,100.00
2022-10-26T20:43:01.453Z,100.00
2022-10-26T20:45:32.932Z,100.00
2022-10-26T20:48:00.900Z,100.00
2022-10-26T20:50:29.574Z,100.00
2022-10-26T20:53:09.278Z,100.00
2022-10-26T20:55:55.644Z,100.00
2022-10-26T20:58:38.956Z,100.00
2022-10-26T21:01:10.034Z,100.00
2022-10-26T21:03:36.737Z,100.00
2022-10-26T21:06:05.869Z,100.00
2022-10-26T21:08:32.469Z,100.00
2022-10-26T21:10:59.049Z,100.00
2022-10-26T21:13:25.631Z,100.00
2022-10-26T21:15:52.216Z,100.00
2022-10-26T21:18:18.829Z,100.00
2022-10-26T21:20:45.422Z,100.00
2022-10-26T21:23:11.991Z,100.00
2022-10-26T21:25:38.659Z,100.00
2022-10-26T21:28:05.971Z,100.00
2022-10-26T21:30:33.043Z,100.00
2022-10-26T21:32:59.813Z,100.00
2022-10-26T21:35:26.403Z,100.00
2022-10-26T21:37:54.538Z,100.00
2022-10-26T21:40:21.251Z,100.00
2022-10-26T21:42:51.981Z,100.00
2022-10-26T21:45:19.088Z,100.00
2022-10-26T21:47:46.122Z,100.00
2022-10-26T21:50:12.729Z,100.00
2022-10-26T21:52:39.317Z,100.00
2022-10-26T21:55:06.131Z,100.00
2022-10-26T21:57:32.715Z,100.00
2022-10-26T21:59:59.314Z,100.00
2022-10-26T22:02:27.398Z,100.00
2022-10-26T22:04:53.999Z,100.00
2022-10-26T22:07:20.570Z,100.00
2022-10-26T22:10:07.532Z,100.00
2022-10-26T22:12:34.468Z,100.00
2022-10-26T22:15:01.110Z,100.00
2022-10-26T22:17:27.694Z,100.00
2022-10-26T22:19:54.346Z,100.00
2022-10-26T22:22:20.987Z,100.00
2022-10-26T22:24:47.585Z,100.00
2022-10-26T22:27:14.160Z,100.00
2022-10-26T22:29:40.770Z,100.00
2022-10-26T22:32:07.359Z,100.00
2022-10-26T22:34:33.947Z,100.00
2022-10-26T22:37:00.595Z,100.00
2022-10-26T22:39:27.183Z,100.00
2022-10-26T22:41:53.801Z,100.00
2022-10-26T22:44:20.403Z,100.00
2022-10-26T22:46:46.967Z,100.00
2022-10-26T22:49:13.823Z,100.00
2022-10-26T22:51:40.494Z,100.00
2022-10-26T22:54:07.060Z,100.00
2022-10-26T22:56:35.281Z,100.00
2022-10-26T22:59:01.924Z,100.00
2022-10-26T23:01:32.290Z,100.00
2022-10-26T23:03:59.920Z,100.00
2022-10-26T23:06:29.042Z,100.00
2022-10-26T23:08:55.690Z,100.00
2022-10-26T23:11:24.197Z,100.00
2022-10-26T23:13:59.797Z,100.00
2022-10-26T23:16:27.722Z,100.00
2022-10-26T23:18:54.925Z,100.00
2022-10-26T23:21:24.140Z,100.00
2022-10-26T23:23:51.006Z,100.00
2022-10-26T23:26:19.688Z,100.00
2022-10-26T23:28:46.722Z,100.00
2022-10-26T23:31:24.947Z,100.00
2022-10-26T23:33:52.842Z,100.00
2022-10-26T23:36:20.057Z,100.00
2022-10-26T23:38:47.196Z,100.00
2022-10-26T23:41:13.841Z,100.00
2022-10-26T23:43:41.091Z,100.00
2022-10-26T23:46:07.711Z,100.00
2022-10-26T23:48:34.458Z,100.00
2022-10-26T23:51:01.041Z,100.00
2022-10-26T23:53:27.627Z,100.00
2022-10-26T23:55:54.216Z,100.00
2022-10-26T23:58:20.780Z,100.00
